Kotzebue, AK (99752)

12:10 PM AKST on February 27, 2017 (GMT -0900)
Robert/bob/curtis Memorial | | Change Station

Elev 56 ft 66.82 °N, 161.02 °W | Updated 12 minutes ago

Snow
Snow
1 °F
Feels Like -7 °F
N
4
Wind Variable Wind from WSW

Today
High -- | Low -- °F
--% Chance of Precip.
Yesterday
High -- | Low -- °F
Precip. -- in
Pressure 30.10 in
Visibility 2.0 miles
Clouds Overcast 600 ft
Windchill -7 °F
Dew Point -2 °F
Humidity 87%
Rainfall 0.00 in
Snow Depth Not available.
9:07 AM 6:52 PM
New Moon, 2% visible
METAR PFNO 272058Z AUTO 25003KT 2SM -SN BR OVC006 M17/M19 A3009 RMK AO2 SNB02 SLP192 P0000 60000 T11721189 51011 FZRANO
Pressure 30.10 in
Visibility 2.0 miles
Clouds Overcast 600 ft
Windchill -7 °F
Dew Point -2 °F
Humidity 87%
Rainfall 0.00 in
Snow Depth Not available.
9:07 AM 6:52 PM
New Moon, 2% visible
METAR PFNO 272058Z AUTO 25003KT 2SM -SN BR OVC006 M17/M19 A3009 RMK AO2 SNB02 SLP192 P0000 60000 T11721189 51011 FZRANO

Get Your Daily Forecast Email!

Thanks for signing up!

Be on the lookout for a verification email in your inbox.

You'll start receiving the daily forecast at 8 AM.

×

10-Day Weather Forecast

Almanac

Astronomy

Feb. 27, 2017 Rise Set
Actual Time
Civil Twilight
Nautical Twilight
Astronomical Twilight
Moon
Length of Visible Light
Length of Day
Tomorrow will be .
, % of the Moon is Illuminated

Today's Extremes

State Highs State Lows

Community

WunderPhotos

Upload Photos

1,962,540 photos uploaded!

WunderBlog® & News

Nearby

Air Quality

  Air Quality AQ Index Pollutant
Not available.

Snow Depth

Station Depth Elevation

Earthquake Activity

City Distance Mag. Time & Date
Minimum magnitude displayed is 2.5.

Coastal Water Temperatures

Place Temperature

Stations

Nearby Weather Stations

Station Location Temp. Windchill Dew Point Humidity Wind Precip. Elev Updated Type
                   

Watches & Warnings

There are currently no watches in effect.